Time;durP1;ratioP1;P1;durP2;ratioP2;P2;SDS_P1;SDS_P2;PMS_P1;PMS_P2;Temp;Humidity;BMP_temperature;BMP_pressure;BME280_temperature;BME280_humidity;BME280_pressure;Samples;Min_cycle;Max_cycle;Signal;HPM_P1;HPM_P2
2021/01/25 00:00:28;;;;;;;;;;;;;;;-0.11;91.32;100718.50;1857645;77;20138;-38
2021/01/25 00:03:02;;;;;;;;;;;;;;;-0.09;91.60;100723.70;1861846;76;20401;-39
2021/01/25 00:05:31;;;;;;;;;;;;;;;-0.07;91.81;100719.47;1884463;75;20279;-38
2021/01/25 00:07:59;;;;;;;;;;;;;;;-0.06;91.94;100727.21;1902482;75;20410;-39
2021/01/25 00:10:26;;;;;;;;;;;;;;;-0.03;92.07;100729.02;1902310;75;20426;-38
2021/01/25 00:12:56;;;;;;;;;;;;;;;0.00;92.20;100729.95;1902273;75;20504;-37
2021/01/25 00:15:24;;;;;;;;;;;;;;;0.03;92.13;100734.73;1902520;75;20151;-38
2021/01/25 00:17:52;;;;;;;;;;;;;;;0.04;92.12;100732.63;1902610;75;20136;-38
2021/01/25 00:20:20;;;;;;;;;;;;;;;0.03;92.13;100724.43;1902465;75;20176;-39
2021/01/25 00:22:49;;;;;;;;;;;;;;;0.04;92.20;100715.88;1902210;75;20223;-38
2021/01/25 00:25:18;;;;;;;;;;;;;;;0.09;92.22;100717.73;1902495;75;20128;-38
2021/01/25 00:27:45;;;;;;;;;;;;;;;0.15;92.20;100712.73;1902606;75;20183;-39
2021/01/25 00:30:16;;;;;;;;;;;;;;;0.20;92.05;100717.58;1902596;75;20132;-39
2021/01/25 00:32:45;;;;;;;;;;;;;;;0.21;91.89;100712.00;1902601;75;20179;-38
2021/01/25 00:35:14;;;;;;;;;;;;;;;0.20;91.74;100712.42;1902342;75;20167;-38
2021/01/25 00:37:41;;;;;;;;;;;;;;;0.18;91.64;100721.84;1880015;75;20146;-50
2021/01/25 00:40:11;;;;;;;;;;;;;;;0.15;91.55;100706.70;1864474;76;20215;-38
2021/01/25 00:42:39;;;;;;;;;;;;;;;0.14;91.61;100704.95;1888291;76;20367;-38
2021/01/25 00:45:08;;;;;;;;;;;;;;;0.16;91.66;100705.88;1888259;76;20165;-38
2021/01/25 00:47:38;;;;;;;;;;;;;;;0.18;91.63;100712.82;1887864;76;20402;-39
2021/01/25 00:50:08;;;;;;;;;;;;;;;0.19;91.60;100719.73;1888187;76;20130;-38
2021/01/25 00:52:36;;;;;;;;;;;;;;;0.19;91.49;100711.11;1888221;76;20223;-38
2021/01/25 00:55:06;;;;;;;;;;;;;;;0.19;91.51;100711.11;1888213;76;20180;-38
2021/01/25 00:57:34;;;;;;;;;;;;;;;0.18;91.50;100714.11;1888004;76;20141;-38
2021/01/25 01:00:03;;;;;;;;;;;;;;;0.13;91.44;100701.50;1888180;76;20141;-39
2021/01/25 01:02:31;;;;;;;;;;;;;;;0.10;91.45;100716.02;1888009;76;20160;-39
2021/01/25 01:04:59;;;;;;;;;;;;;;;0.08;91.62;100708.66;1888017;76;20610;-38
2021/01/25 01:07:27;;;;;;;;;;;;;;;0.07;91.71;100707.78;1888198;76;20129;-38
2021/01/25 01:09:54;;;;;;;;;;;;;;;0.08;91.86;100694.48;1887937;76;20168;-38
2021/01/25 01:12:22;;;;;;;;;;;;;;;0.09;92.03;100688.09;1888029;76;20121;-38
2021/01/25 01:14:50;;;;;;;;;;;;;;;0.13;92.21;100683.45;1887989;76;20462;-38
2021/01/25 01:17:18;;;;;;;;;;;;;;;0.18;92.25;100683.17;1888275;76;20137;-37
2021/01/25 01:19:45;;;;;;;;;;;;;;;0.21;92.22;100687.52;1887981;76;20299;-38
2021/01/25 01:22:13;;;;;;;;;;;;;;;0.22;92.20;100684.11;1888016;76;20256;-38
2021/01/25 01:24:41;;;;;;;;;;;;;;;0.20;92.13;100687.93;1887929;76;20127;-40
2021/01/25 01:27:10;;;;;;;;;;;;;;;0.18;92.09;100696.48;1888057;76;20176;-39
2021/01/25 01:29:38;;;;;;;;;;;;;;;0.15;92.07;100696.39;1887955;76;20133;-45
2021/01/25 01:32:05;;;;;;;;;;;;;;;0.11;92.03;100687.72;1887961;76;20414;-39
2021/01/25 01:34:33;;;;;;;;;;;;;;;0.08;92.02;100681.59;1888192;76;20239;-45
2021/01/25 01:37:01;;;;;;;;;;;;;;;0.08;92.26;100686.34;1888064;76;20140;-38
2021/01/25 01:39:29;;;;;;;;;;;;;;;0.09;92.42;100690.67;1888322;76;20192;-39
2021/01/25 01:41:56;;;;;;;;;;;;;;;0.13;92.63;100683.90;1888118;76;20184;-38
2021/01/25 01:44:24;;;;;;;;;;;;;;;0.18;92.70;100688.33;1888088;76;20492;-38
2021/01/25 01:46:54;;;;;;;;;;;;;;;0.22;92.69;100687.97;1888067;76;20235;-38
2021/01/25 01:49:22;;;;;;;;;;;;;;;0.23;92.69;100695.75;1887988;76;20223;-39
2021/01/25 01:51:50;;;;;;;;;;;;;;;0.25;92.67;100682.50;1887869;76;20180;-37
2021/01/25 01:54:18;;;;;;;;;;;;;;;0.28;92.64;100681.27;1888159;76;20431;-38
2021/01/25 01:56:45;;;;;;;;;;;;;;;0.29;92.59;100679.55;1888075;76;20247;-38
2021/01/25 01:59:13;;;;;;;;;;;;;;;0.27;92.59;100667.03;1888013;76;20160;-38
2021/01/25 02:01:40;;;;;;;;;;;;;;;0.30;92.61;100683.89;1887984;76;20133;-37
2021/01/25 02:04:09;;;;;;;;;;;;;;;0.32;92.56;100683.52;1888264;76;20394;-38
2021/01/25 02:06:37;;;;;;;;;;;;;;;0.35;92.49;100680.58;1887870;76;20235;-38
2021/01/25 02:09:05;;;;;;;;;;;;;;;0.38;92.48;100674.63;1888214;76;20457;-37
2021/01/25 02:11:33;;;;;;;;;;;;;;;0.41;92.36;100670.82;1856873;76;20175;-38
2021/01/25 02:14:01;;;;;;;;;;;;;;;0.43;92.27;100671.73;1887894;76;20220;-38
2021/01/25 02:16:31;;;;;;;;;;;;;;;0.44;92.20;100670.91;1886233;76;20188;-37
2021/01/25 02:18:58;;;;;;;;;;;;;;;0.45;92.12;100673.95;1888045;76;20132;-37
2021/01/25 02:21:28;;;;;;;;;;;;;;;0.46;92.05;100674.37;1888124;76;20224;-37
2021/01/25 02:27:09;;;;;;;;;;;;;;;0.53;92.01;100660.78;1920843;74;20142;-37
2021/01/25 02:29:38;;;;;;;;;;;;;;;0.51;91.96;100666.77;1889037;75;20167;-37
2021/01/25 02:32:06;;;;;;;;;;;;;;;0.51;92.05;100673.22;1903442;75;20258;-38
2021/01/25 02:34:34;;;;;;;;;;;;;;;0.48;92.10;100658.53;1903226;75;20469;-38
2021/01/25 02:37:02;;;;;;;;;;;;;;;0.48;92.14;100657.66;1903302;75;20211;-38
2021/01/25 02:39:30;;;;;;;;;;;;;;;0.48;92.15;100651.20;1869054;75;20156;-38
2021/01/25 02:41:58;;;;;;;;;;;;;;;0.49;92.13;100652.95;1902990;75;20120;-37
2021/01/25 02:44:27;;;;;;;;;;;;;;;0.50;92.06;100658.56;1869325;75;20235;-39
2021/01/25 02:46:55;;;;;;;;;;;;;;;0.51;91.97;100659.03;1903121;75;20175;-39
2021/01/25 02:49:23;;;;;;;;;;;;;;;0.51;91.93;100652.58;1903257;75;20140;-38
2021/01/25 02:51:51;;;;;;;;;;;;;;;0.50;91.96;100647.84;1903339;75;20168;-38
2021/01/25 02:54:19;;;;;;;;;;;;;;;0.50;92.01;100641.39;1902975;75;20298;-37
2021/01/25 02:56:47;;;;;;;;;;;;;;;0.50;92.12;100645.26;1902882;75;20128;-38
2021/01/25 02:59:15;;;;;;;;;;;;;;;0.48;92.28;100660.23;1903125;75;20259;-37
2021/01/25 03:01:45;;;;;;;;;;;;;;;0.47;92.50;100662.34;1903030;75;20479;-38
2021/01/25 03:04:14;;;;;;;;;;;;;;;0.42;92.79;100666.12;1903378;75;20378;-41
2021/01/25 03:06:42;;;;;;;;;;;;;;;0.37;93.14;100659.99;1903316;75;20386;-38
2021/01/25 03:09:11;;;;;;;;;;;;;;;0.33;93.55;100661.61;1903374;75;20497;-37
2021/01/25 03:11:42;;;;;;;;;;;;;;;0.27;93.97;100670.48;1903118;75;20191;-38
2021/01/25 03:14:11;;;;;;;;;;;;;;;0.23;94.34;100666.52;1903317;75;20160;-37
2021/01/25 03:16:39;;;;;;;;;;;;;;;0.19;94.68;100670.75;1902946;75;20402;-39
2021/01/25 03:19:07;;;;;;;;;;;;;;;0.16;95.05;100668.49;1903065;75;20188;-41
2021/01/25 03:21:35;;;;;;;;;;;;;;;0.14;95.41;100668.86;1902954;75;20168;-38
2021/01/25 03:24:04;;;;;;;;;;;;;;;0.11;95.71;100661.95;1903033;75;20132;-39
2021/01/25 03:26:33;;;;;;;;;;;;;;;0.09;96.03;100659.73;1902952;75;20251;-39
2021/01/25 03:29:01;;;;;;;;;;;;;;;0.07;96.40;100666.55;1903257;75;20258;-38
2021/01/25 03:31:29;;;;;;;;;;;;;;;0.06;96.72;100665.25;1903184;75;20199;-38
2021/01/25 03:33:58;;;;;;;;;;;;;;;0.05;96.99;100661.80;1903036;75;20122;-38
2021/01/25 03:36:25;;;;;;;;;;;;;;;0.05;97.21;100667.36;1902871;75;20160;-39
2021/01/25 03:38:53;;;;;;;;;;;;;;;0.05;97.43;100669.94;1902446;75;20389;-38
2021/01/25 03:41:21;;;;;;;;;;;;;;;0.05;97.64;100669.94;1902314;75;20131;-38
2021/01/25 03:43:49;;;;;;;;;;;;;;;0.04;97.83;100656.18;1902622;75;20133;-39
2021/01/25 03:46:16;;;;;;;;;;;;;;;0.06;98.00;100657.52;1902320;75;20223;-36
2021/01/25 03:48:44;;;;;;;;;;;;;;;0.06;98.14;100646.80;1902635;75;20136;-38
2021/01/25 03:51:12;;;;;;;;;;;;;;;0.07;98.23;100660.11;1902536;75;20195;-38
2021/01/25 03:53:40;;;;;;;;;;;;;;;0.07;98.33;100663.97;1902263;75;20202;-39
2021/01/25 03:56:07;;;;;;;;;;;;;;;0.08;98.42;100662.27;1902215;75;20120;-38
2021/01/25 03:58:35;;;;;;;;;;;;;;;0.07;98.54;100663.09;1902319;75;20505;-37
2021/01/25 04:01:03;;;;;;;;;;;;;;;0.09;98.67;100671.75;1902060;75;20242;-38
2021/01/25 04:03:31;;;;;;;;;;;;;;;0.08;98.78;100669.59;1902400;75;20374;-38
2021/01/25 04:05:59;;;;;;;;;;;;;;;0.11;98.90;100663.65;1902455;75;20391;-38
2021/01/25 04:08:26;;;;;;;;;;;;;;;0.13;99.03;100663.28;1902273;75;20120;-39
2021/01/25 04:10:54;;;;;;;;;;;;;;;0.12;99.13;100655.96;1902223;75;20161;-37
2021/01/25 04:13:22;;;;;;;;;;;;;;;0.14;99.21;100646.95;1902534;75;20446;-40
2021/01/25 04:15:49;;;;;;;;;;;;;;;0.14;99.28;100648.23;1902332;75;20278;-38
2021/01/25 04:18:17;;;;;;;;;;;;;;;0.15;99.40;100652.56;1902356;75;20135;-38
2021/01/25 04:20:45;;;;;;;;;;;;;;;0.16;99.45;100644.88;1902304;75;20496;-38
2021/01/25 04:23:13;;;;;;;;;;;;;;;0.17;99.49;100644.05;1901258;75;20231;-38
2021/01/25 04:25:41;;;;;;;;;;;;;;;0.19;99.58;100647.96;1876813;75;20137;-38
2021/01/25 04:28:09;;;;;;;;;;;;;;;0.21;99.63;100654.00;1876903;75;20149;-37
2021/01/25 04:30:37;;;;;;;;;;;;;;;0.22;99.68;100648.02;1867073;77;20147;-39
2021/01/25 04:33:05;;;;;;;;;;;;;;;0.24;99.71;100643.78;1868270;75;20455;-38
2021/01/25 04:35:39;;;;;;;;;;;;;;;0.24;99.73;100648.52;1873191;75;20215;-39
2021/01/25 04:38:02;;;;;;;;;;;;;;;0.24;99.76;100648.52;1868090;75;20145;-39
2021/01/25 04:40:31;;;;;;;;;;;;;;;0.26;99.79;100646.83;1867234;76;20133;-40
2021/01/25 04:43:00;;;;;;;;;;;;;;;0.28;99.83;100637.43;1870669;75;20169;-37
2021/01/25 04:45:28;;;;;;;;;;;;;;;0.31;99.84;100641.80;1866829;75;20112;-41
2021/01/25 04:47:55;;;;;;;;;;;;;;;0.33;99.83;100644.84;1867221;75;20154;-38
2021/01/25 04:50:24;;;;;;;;;;;;;;;0.36;99.79;100641.07;1867063;77;20384;-39
2021/01/25 04:52:52;;;;;;;;;;;;;;;0.38;99.77;100637.25;1867246;77;20529;-38
2021/01/25 04:55:20;;;;;;;;;;;;;;;0.40;99.68;100641.58;1867287;76;20161;-39
2021/01/25 04:57:48;;;;;;;;;;;;;;;0.40;99.60;100635.55;1867434;77;20190;-39
2021/01/25 05:00:18;;;;;;;;;;;;;;;0.43;99.55;100636.05;1867009;77;20194;-38
2021/01/25 05:02:46;;;;;;;;;;;;;;;0.44;99.49;100627.48;1867325;77;20130;-40
2021/01/25 05:05:14;;;;;;;;;;;;;;;0.45;99.50;100634.39;1869588;75;20453;-37
2021/01/25 05:07:42;;;;;;;;;;;;;;;0.47;99.49;100636.14;1888125;75;20132;-38
2021/01/25 05:10:11;;;;;;;;;;;;;;;0.51;99.47;100643.55;1875766;75;20170;-38
2021/01/25 05:12:44;;;;;;;;;;;;;;;0.53;99.43;100644.02;1866950;75;20140;-39
2021/01/25 05:15:28;;;;;;;;;;;;;;;0.57;99.34;100641.11;1868541;75;20223;-40
2021/01/25 05:17:56;;;;;;;;;;;;;;;0.60;99.26;100639.45;1876350;75;20204;-38
2021/01/25 05:20:26;;;;;;;;;;;;;;;0.64;99.15;100627.52;1876947;75;20188;-39
2021/01/25 05:23:01;;;;;;;;;;;;;;;0.64;99.02;100629.68;1891642;75;20187;-39
2021/01/25 05:25:30;;;;;;;;;;;;;;;0.66;98.89;100654.20;1879070;75;20265;-38
2021/01/25 05:27:58;;;;;;;;;;;;;;;0.68;98.77;100647.37;1872662;75;20143;-38
2021/01/25 05:30:28;;;;;;;;;;;;;;;0.68;98.65;100652.11;1885083;75;20186;-38
2021/01/25 05:32:57;;;;;;;;;;;;;;;0.70;98.56;100662.47;1871145;75;20444;-38
2021/01/25 05:35:28;;;;;;;;;;;;;;;0.72;98.44;100658.23;1875793;75;20207;-39
2021/01/25 05:37:58;;;;;;;;;;;;;;;0.72;98.30;100652.62;1878076;75;20176;-38
2021/01/25 05:40:27;;;;;;;;;;;;;;;0.72;98.17;100646.17;1853846;77;20130;-39
2021/01/25 05:42:55;;;;;;;;;;;;;;;0.71;98.06;100648.74;1875827;75;20275;-38
2021/01/25 05:45:24;;;;;;;;;;;;;;;0.70;97.96;100643.13;1868724;75;20178;-40
2021/01/25 05:47:54;;;;;;;;;;;;;;;0.69;97.88;100647.41;1876212;75;20186;-43
2021/01/25 05:50:26;;;;;;;;;;;;;;;0.68;97.80;100635.77;1870020;75;20195;-38
2021/01/25 05:52:55;;;;;;;;;;;;;;;0.68;97.73;100634.47;1878787;75;20178;-39
2021/01/25 05:55:23;;;;;;;;;;;;;;;0.68;97.66;100636.63;1874476;75;20192;-41
2021/01/25 05:57:51;;;;;;;;;;;;;;;0.67;97.62;100636.59;1868213;75;20174;-39
2021/01/25 06:00:20;;;;;;;;;;;;;;;0.66;97.57;100624.53;1869029;75;20327;-39
2021/01/25 06:02:49;;;;;;;;;;;;;;;0.65;97.58;100624.98;1870921;75;20208;-40
2021/01/25 06:05:34;;;;;;;;;;;;;;;0.65;97.59;100619.81;1869263;75;20198;-40
2021/01/25 06:08:15;;;;;;;;;;;;;;;0.69;97.57;100619.45;1869940;75;20190;-39
2021/01/25 06:11:18;;;;;;;;;;;;;;;0.72;97.55;100614.38;1870849;75;20207;-39
2021/01/25 06:13:58;;;;;;;;;;;;;;;0.77;97.50;100615.33;1874225;75;20171;-40
2021/01/25 06:16:29;;;;;;;;;;;;;;;0.79;97.33;100613.22;1876427;75;20455;-39
2021/01/25 06:19:00;;;;;;;;;;;;;;;0.82;97.20;100626.61;1870038;75;20205;-42
2021/01/25 06:21:30;;;;;;;;;;;;;;;0.79;97.15;100631.28;1869635;75;20423;-41
2021/01/25 06:26:53;;;;;;;;;;;;;;;0.86;97.10;100621.95;1898482;74;20140;-39
2021/01/25 06:29:20;;;;;;;;;;;;;;;0.84;97.17;100633.98;1866384;75;20188;-35
2021/01/25 06:31:56;;;;;;;;;;;;;;;0.87;97.27;100620.25;1870052;75;20222;-42
2021/01/25 06:34:25;;;;;;;;;;;;;;;0.89;97.31;100616.87;1874972;75;20207;-40
2021/01/25 06:36:55;;;;;;;;;;;;;;;0.89;97.36;100610.42;1868976;75;20187;-40
2021/01/25 06:39:28;;;;;;;;;;;;;;;0.89;97.52;100610.84;1874034;75;20481;-41
2021/01/25 06:42:01;;;;;;;;;;;;;;;0.88;97.71;100612.97;1869980;75;20558;-44
2021/01/25 06:44:32;;;;;;;;;;;;;;;0.87;97.91;100613.80;1869214;75;20161;-42
2021/01/25 06:47:03;;;;;;;;;;;;;;;0.86;98.11;100612.92;1872038;75;20190;-42
2021/01/25 06:49:31;;;;;;;;;;;;;;;0.84;98.26;100609.47;1870764;75;20138;-42
2021/01/25 06:51:59;;;;;;;;;;;;;;;0.85;98.39;100618.95;1883184;75;20668;-42
2021/01/25 06:54:27;;;;;;;;;;;;;;;0.85;98.48;100616.79;1875927;75;20409;-44
2021/01/25 06:56:59;;;;;;;;;;;;;;;0.86;98.63;100615.92;1868695;75;20186;-41
2021/01/25 06:59:30;;;;;;;;;;;;;;;0.88;98.77;100612.97;1870914;75;20498;-41
2021/01/25 07:01:58;;;;;;;;;;;;;;;0.89;98.86;100597.94;1871033;75;20214;-43
2021/01/25 07:04:31;;;;;;;;;;;;;;;0.90;98.98;100599.27;1877039;75;20146;-43
2021/01/25 07:06:59;;;;;;;;;;;;;;;0.93;99.05;100603.59;1873422;75;20248;-42
2021/01/25 07:09:33;;;;;;;;;;;;;;;0.97;99.05;100602.84;1851628;75;20266;-41
2021/01/25 07:12:03;;;;;;;;;;;;;;;1.02;99.05;100598.64;1886742;75;20254;-42
2021/01/25 07:14:32;;;;;;;;;;;;;;;1.07;99.02;100600.88;1875634;75;20205;-43
2021/01/25 07:17:00;;;;;;;;;;;;;;;1.14;99.07;100600.17;1867884;75;20162;-42
2021/01/25 07:19:28;;;;;;;;;;;;;;;1.21;99.04;100594.28;1876902;75;20116;-43
2021/01/25 07:21:57;;;;;;;;;;;;;;;1.32;98.98;100604.38;1872854;75;20181;-41
2021/01/25 07:24:26;;;;;;;;;;;;;;;1.44;98.98;100616.69;1867504;75;20164;-42
2021/01/25 07:26:59;;;;;;;;;;;;;;;1.57;98.81;100619.95;1875090;75;20474;-42
2021/01/25 07:29:28;;;;;;;;;;;;;;;1.70;98.57;100611.98;1874668;75;20671;-42
2021/01/25 07:31:57;;;;;;;;;;;;;;;1.78;98.29;100615.55;1869604;75;20172;-42
2021/01/25 07:34:30;;;;;;;;;;;;;;;1.83;98.00;100613.94;1871294;75;20225;-43
2021/01/25 07:36:56;;;;;;;;;;;;;;;1.86;97.71;100606.22;1868700;75;20463;-41
2021/01/25 07:39:24;;;;;;;;;;;;;;;1.86;97.40;100604.93;1869153;75;20221;-44
2021/01/25 07:42:01;;;;;;;;;;;;;;;1.90;97.21;100605.45;1806153;75;20143;-41
2021/01/25 07:44:30;;;;;;;;;;;;;;;1.93;96.98;100599.02;1812022;75;20200;-41
2021/01/25 07:47:04;;;;;;;;;;;;;;;1.99;96.76;100603.87;1873800;75;20235;-42
2021/01/25 07:49:33;;;;;;;;;;;;;;;2.05;96.52;100607.39;1868180;75;20432;-43
2021/01/25 07:52:00;;;;;;;;;;;;;;;2.08;96.31;100607.03;1870822;75;20142;-39
2021/01/25 07:54:30;;;;;;;;;;;;;;;2.14;96.20;100607.13;1871846;75;20629;-41
2021/01/25 07:56:59;;;;;;;;;;;;;;;2.20;96.13;100616.70;1870148;75;20194;-43
2021/01/25 07:59:35;;;;;;;;;;;;;;;2.30;96.04;100626.32;1873209;75;20208;-43
2021/01/25 08:02:05;;;;;;;;;;;;;;;2.38;95.79;100628.19;1871235;75;20218;-39
2021/01/25 08:04:35;;;;;;;;;;;;;;;2.40;95.35;100620.45;1869481;75;20194;-42
2021/01/25 08:07:03;;;;;;;;;;;;;;;2.39;95.02;100625.19;1870516;75;20146;-42
2021/01/25 08:09:37;;;;;;;;;;;;;;;2.39;94.75;100624.76;1873143;75;20180;-42
2021/01/25 08:12:01;;;;;;;;;;;;;;;2.37;94.57;100624.28;1873887;75;20129;-41
2021/01/25 08:14:45;;;;;;;;;;;;;;;2.40;94.44;100626.92;1876167;75;20162;-40
2021/01/25 08:17:18;;;;;;;;;;;;;;;2.45;94.19;100627.86;1872805;75;20186;-43
2021/01/25 08:19:55;;;;;;;;;;;;;;;2.48;94.12;100621.88;1868790;75;20249;-49
2021/01/25 08:22:33;;;;;;;;;;;;;;;2.53;94.03;100619.80;1848070;77;20293;-42
2021/01/25 08:25:01;;;;;;;;;;;;;;;2.59;93.64;100620.30;1866651;75;20181;-44
2021/01/25 08:27:30;;;;;;;;;;;;;;;2.63;93.62;100610.00;1871286;75;20202;-44
2021/01/25 08:30:03;;;;;;;;;;;;;;;2.73;93.60;100607.13;1866665;75;20194;-43
2021/01/25 08:32:42;;;;;;;;;;;;;;;2.85;93.58;100603.83;1867347;75;20272;-41
2021/01/25 08:35:12;;;;;;;;;;;;;;;2.98;93.53;100600.11;1869860;75;20193;-43
2021/01/25 08:37:40;;;;;;;;;;;;;;;3.29;93.29;100592.27;1874439;75;20396;-42
2021/01/25 08:40:19;;;;;;;;;;;;;;;3.45;92.65;100591.59;1868356;75;20291;-42
2021/01/25 08:42:47;;;;;;;;;;;;;;;3.58;92.06;100592.58;1876329;75;20229;-42
2021/01/25 08:45:25;;;;;;;;;;;;;;;3.73;91.57;100591.87;1878674;75;20198;-42
2021/01/25 08:48:02;;;;;;;;;;;;;;;4.06;91.62;100592.16;1871397;75;20451;-41
2021/01/25 08:50:30;;;;;;;;;;;;;;;4.64;90.83;100588.65;1885814;75;20169;-42
2021/01/25 08:53:10;;;;;;;;;;;;;;;5.17;89.60;100584.99;1869891;75;20207;-41
2021/01/25 08:55:43;;;;;;;;;;;;;;;5.53;87.26;100589.41;1874350;75;20187;-44
2021/01/25 08:58:26;;;;;;;;;;;;;;;5.77;84.62;100592.06;1874766;75;20141;-42
2021/01/25 09:00:53;;;;;;;;;;;;;;;5.98;83.47;100590.78;1870236;75;20122;-43
2021/01/25 09:03:23;;;;;;;;;;;;;;;6.14;82.26;100598.17;1871584;75;20152;-43
2021/01/25 09:05:52;;;;;;;;;;;;;;;6.13;79.80;100583.41;1846426;75;20284;-47
2021/01/25 09:08:22;;;;;;;;;;;;;;;5.87;78.52;100582.12;1829208;75;20152;-41
2021/01/25 09:10:51;;;;;;;;;;;;;;;5.63;78.52;100585.97;1821278;75;20458;-43
2021/01/25 09:13:19;;;;;;;;;;;;;;;5.58;79.22;100584.64;1868657;75;20309;-44
2021/01/25 09:15:49;;;;;;;;;;;;;;;5.76;79.55;100581.65;1867143;75;20122;-43
2021/01/25 09:18:16;;;;;;;;;;;;;;;5.97;79.15;100579.09;1869848;75;20273;-44
2021/01/25 09:20:45;;;;;;;;;;;;;;;6.03;78.05;100583.44;1877318;75;20320;-43
2021/01/25 09:23:13;;;;;;;;;;;;;;;5.91;77.87;100576.03;1873292;75;20463;-44
2021/01/25 09:25:41;;;;;;;;;;;;;;;5.76;77.99;100568.64;1874840;75;20277;-42
2021/01/25 09:28:09;;;;;;;;;;;;;;;5.68;78.56;100579.47;1871312;75;20131;-42
2021/01/25 09:30:37;;;;;;;;;;;;;;;5.65;79.14;100582.05;1871128;75;20178;-42
2021/01/25 09:33:07;;;;;;;;;;;;;;;5.63;79.56;100579.47;1867996;75;20284;-43
2021/01/25 09:35:37;;;;;;;;;;;;;;;5.56;79.87;100569.92;1840299;75;20138;-43
2021/01/25 09:38:06;;;;;;;;;;;;;;;5.58;80.22;100570.34;1869284;75;20195;-44
2021/01/25 09:40:34;;;;;;;;;;;;;;;5.54;80.37;100559.51;1868195;75;20169;-45
2021/01/25 09:43:02;;;;;;;;;;;;;;;5.53;80.58;100561.67;1870909;75;20611;-43
2021/01/25 09:45:31;;;;;;;;;;;;;;;5.62;80.25;100559.52;1871252;75;20575;-43
2021/01/25 09:48:00;;;;;;;;;;;;;;;5.54;79.68;100559.94;1866074;75;20546;-52
2021/01/25 09:50:28;;;;;;;;;;;;;;;5.36;79.55;100554.28;1871904;75;20711;-43
2021/01/25 09:52:56;;;;;;;;;;;;;;;5.19;79.85;100560.72;1871201;75;20194;-43
2021/01/25 09:55:25;;;;;;;;;;;;;;;5.04;80.15;100556.80;1840522;75;20187;-49
2021/01/25 09:57:52;;;;;;;;;;;;;;;4.93;80.43;100548.08;1870589;75;20537;-43
2021/01/25 10:00:23;;;;;;;;;;;;;;;4.94;80.95;100552.42;1867611;75;20190;-43
2021/01/25 10:02:51;;;;;;;;;;;;;;;5.01;81.25;100543.78;1871308;75;20559;-43
2021/01/25 10:05:20;;;;;;;;;;;;;;;5.12;81.54;100533.45;1871910;75;20277;-43
2021/01/25 10:07:50;;;;;;;;;;;;;;;5.35;81.97;100532.18;1827598;75;20521;-43
2021/01/25 10:10:20;;;;;;;;;;;;;;;5.60;81.63;100536.55;1829626;75;20647;-44
2021/01/25 10:12:50;;;;;;;;;;;;;;;5.70;81.21;100535.70;1873951;75;20150;-43
2021/01/25 10:15:18;;;;;;;;;;;;;;;5.71;80.91;100528.30;1869547;75;20363;-44
2021/01/25 10:17:50;;;;;;;;;;;;;;;5.67;81.08;100534.38;1870594;75;20236;-43
2021/01/25 10:20:19;;;;;;;;;;;;;;;5.64;81.24;100541.33;1870392;75;20195;-50
2021/01/25 10:22:48;;;;;;;;;;;;;;;5.64;81.54;100529.20;1871016;75;20230;-43
2021/01/25 10:26:48;;;;;;;;;;;;;;;5.69;81.61;100528.76;1887395;74;20308;-43
2021/01/25 10:29:16;;;;;;;;;;;;;;;5.65;81.77;100529.60;1878406;74;20264;-44
2021/01/25 10:31:44;;;;;;;;;;;;;;;5.67;81.76;100512.28;1884382;74;20215;-44
2021/01/25 10:34:14;;;;;;;;;;;;;;;5.81;81.90;100500.14;1856580;74;20197;-43
2021/01/25 10:36:46;;;;;;;;;;;;;;;5.88;80.54;100514.05;1768929;77;20193;-44
2021/01/25 10:39:15;;;;;;;;;;;;;;;5.79;79.16;100503.59;1824270;77;20154;-42
2021/01/25 10:41:43;;;;;;;;;;;;;;;5.67;79.04;100502.30;1783084;77;20196;-43
2021/01/25 10:44:15;;;;;;;;;;;;;;;5.59;79.44;100497.09;1829746;77;20196;-45
2021/01/25 10:46:40;;;;;;;;;;;;;;;5.57;79.82;100492.35;1800360;77;20192;-43
2021/01/25 10:49:08;;;;;;;;;;;;;;;5.62;79.99;100491.91;1832357;77;20216;-45
2021/01/25 10:51:40;;;;;;;;;;;;;;;5.66;80.25;100481.06;1829308;77;20284;-43
2021/01/25 10:54:10;;;;;;;;;;;;;;;5.75;80.35;100482.37;1833251;77;20295;-43
2021/01/25 10:56:39;;;;;;;;;;;;;;;5.90;81.06;100478.06;1802046;77;20208;-44
2021/01/25 10:59:07;;;;;;;;;;;;;;;6.21;80.57;100472.36;1799570;77;20208;-44
2021/01/25 11:01:37;;;;;;;;;;;;;;;6.43;79.84;100464.05;1835794;77;20149;-44
2021/01/25 11:04:05;;;;;;;;;;;;;;;6.55;79.22;100467.91;1828476;77;20201;-43
2021/01/25 11:06:33;;;;;;;;;;;;;;;6.59;78.95;100465.70;1836976;77;20150;-43
2021/01/25 11:09:02;;;;;;;;;;;;;;;6.65;78.74;100476.09;1834788;77;20157;-43
2021/01/25 11:11:34;;;;;;;;;;;;;;;6.67;78.64;100466.55;1805912;77;20174;-43
2021/01/25 11:14:03;;;;;;;;;;;;;;;6.71;78.36;100461.73;1836900;77;20200;-42
2021/01/25 11:16:32;;;;;;;;;;;;;;;6.75;78.33;100457.39;1829112;77;20217;-43
2021/01/25 11:19:00;;;;;;;;;;;;;;;6.88;78.39;100458.19;1831525;77;20293;-44
2021/01/25 11:21:28;;;;;;;;;;;;;;;7.03;78.23;100440.70;1831762;77;20189;-43
2021/01/25 11:23:58;;;;;;;;;;;;;;;7.14;77.99;100445.44;1825458;77;20202;-43
2021/01/25 11:26:28;;;;;;;;;;;;;;;7.16;77.63;100437.14;1800472;77;20285;-43
2021/01/25 11:28:57;;;;;;;;;;;;;;;7.12;77.12;100442.39;1832475;76;20216;-44
2021/01/25 11:31:25;;;;;;;;;;;;;;;6.99;77.35;100430.31;1832286;77;20174;-43
2021/01/25 11:33:53;;;;;;;;;;;;;;;6.91;77.33;100435.57;1830471;76;20536;-42
2021/01/25 11:36:21;;;;;;;;;;;;;;;6.84;77.58;100433.87;1832381;77;20467;-43
2021/01/25 11:38:49;;;;;;;;;;;;;;;6.89;77.83;100437.34;1831279;77;20166;-43
2021/01/25 11:41:18;;;;;;;;;;;;;;;7.01;77.94;100444.22;1784694;77;20226;-42
2021/01/25 11:43:46;;;;;;;;;;;;;;;7.19;77.79;100428.01;1815310;77;20177;-42
2021/01/25 11:46:16;;;;;;;;;;;;;;;7.41;77.16;100426.55;1832716;77;20180;-43
2021/01/25 11:48:45;;;;;;;;;;;;;;;7.59;75.98;100433.77;1830370;77;20198;-44
2021/01/25 11:51:15;;;;;;;;;;;;;;;7.75;74.87;100430.56;1787161;77;20285;-42
2021/01/25 11:53:43;;;;;;;;;;;;;;;7.86;74.08;100431.78;1790751;78;20443;-44
2021/01/25 11:56:11;;;;;;;;;;;;;;;7.90;73.77;100430.86;1832570;77;20193;-43
2021/01/25 11:58:39;;;;;;;;;;;;;;;7.89;73.74;100431.73;1829026;77;20196;-42
2021/01/25 12:01:07;;;;;;;;;;;;;;;7.91;74.01;100432.59;1840146;77;20479;-42
2021/01/25 12:03:37;;;;;;;;;;;;;;;7.96;74.26;100428.18;1790574;77;20379;-45
2021/01/25 12:06:08;;;;;;;;;;;;;;;8.00;74.54;100427.29;1820573;77;20204;-43
2021/01/25 12:08:36;;;;;;;;;;;;;;;8.02;74.37;100426.81;1833524;77;20197;-47
2021/01/25 12:11:04;;;;;;;;;;;;;;;7.89;72.99;100418.69;1830060;77;20174;-43
2021/01/25 12:13:32;;;;;;;;;;;;;;;7.74;72.62;100424.08;1830857;77;20185;-42
2021/01/25 12:16:00;;;;;;;;;;;;;;;7.58;72.61;100429.42;1832177;77;20431;-42
2021/01/25 12:18:46;;;;;;;;;;;;;;;7.43;72.90;100428.67;1792098;77;20233;-42
2021/01/25 12:21:35;;;;;;;;;;;;;;;7.32;73.43;100431.82;1765074;77;20178;-43
2021/01/25 12:24:04;;;;;;;;;;;;;;;7.24;74.36;100420.58;1829205;77;20193;-43
2021/01/25 12:26:32;;;;;;;;;;;;;;;7.17;74.99;100421.06;1785281;78;20295;-44
2021/01/25 12:29:01;;;;;;;;;;;;;;;7.14;75.50;100418.49;1827768;77;20420;-41
2021/01/25 12:31:30;;;;;;;;;;;;;;;7.10;75.93;100416.33;1833956;77;20209;-43
2021/01/25 12:34:00;;;;;;;;;;;;;;;7.08;76.21;100414.20;1780357;78;20324;-43
2021/01/25 12:36:29;;;;;;;;;;;;;;;7.07;76.45;100420.28;1824308;77;20278;-44
2021/01/25 12:38:57;;;;;;;;;;;;;;;7.07;76.58;100416.80;1828374;77;20238;-43
2021/01/25 12:41:26;;;;;;;;;;;;;;;7.05;76.76;100415.50;1831864;77;20208;-43
2021/01/25 12:43:54;;;;;;;;;;;;;;;7.00;76.98;100410.77;1801820;77;20194;-43
2021/01/25 12:46:23;;;;;;;;;;;;;;;6.89;77.40;100411.28;1830815;77;20176;-43
2021/01/25 12:48:50;;;;;;;;;;;;;;;6.73;77.83;100410.94;1826700;77;20475;-42
2021/01/25 12:51:19;;;;;;;;;;;;;;;6.63;78.28;100413.17;1831208;77;20185;-45
2021/01/25 12:53:53;;;;;;;;;;;;;;;6.56;78.67;100410.17;1739905;77;20478;-46
2021/01/25 12:56:22;;;;;;;;;;;;;;;6.50;79.04;100411.04;1801945;77;20225;-43
2021/01/25 12:58:49;;;;;;;;;;;;;;;6.44;79.32;100411.50;1827856;77;20197;-44
2021/01/25 13:01:19;;;;;;;;;;;;;;;6.41;79.58;100420.22;1829876;77;20252;-43
2021/01/25 13:03:46;;;;;;;;;;;;;;;6.40;79.86;100426.29;1835407;77;20149;-43